Agia Eleousa — SX3933 — position and weather

sailwx.info

Track history (hours):
 
Tides and Currents Weather Stations Pressure Air Temp Water Temp Dewpoint Dewpoint Depression Visibility Wind Speed Wind Dir Waves Ship Positions

Agia Eleousa

Last reported at 2017-Sep-17 14:29 UTC. Time now 2017-Sep-20 23:36 UTC.
Position N 40°58' E 025°08'.

Length 19 m.

Type: Fishing. MMSI: 237063000.

Date/timePositionNaut miles runAvg speedWind from/ knotsBaromVisibWave heightAir tempDewpointWater temp
2017-Sep-17 14:29N 40°58' E 025°08'2 3.3
2017-Sep-17 14:01N 40°56' E 025°09'4 7.9
2017-Sep-17 13:31N 40°53' E 025°12'4 8.0
2017-Sep-17 13:01N 40°50' E 025°15'2 4.4
2017-Sep-17 12:30N 40°48' E 025°16'1 2.6
2017-Sep-17 12:01N 40°48' E 025°14'1 2.8
2017-Sep-17 11:31N 40°48' E 025°12'1 2.8
2017-Sep-17 11:01N 40°48' E 025°10'1 2.8
2017-Sep-17 10:30N 40°48' E 025°08'1 2.7
2017-Sep-17 10:01N 40°48' E 025°07'1 2.7
2017-Sep-17 09:31N 40°48' E 025°05'1 2.7
2017-Sep-17 08:59N 40°48' E 025°03'1 2.7
2017-Sep-17 08:30N 40°49' E 025°01'0 0.8
2017-Sep-17 08:00N 40°49' E 025°01'2 2.7
2017-Sep-17 07:23N 40°49' E 025°03'1 2.7
2017-Sep-17 06:56N 40°49' E 025°05'1 2.7
2017-Sep-17 06:29N 40°49' E 025°06'1 2.7
2017-Sep-17 06:00N 40°50' E 025°08'3 2.7
2017-Sep-17 04:58N 40°50' E 025°12'1 2.7
2017-Sep-17 04:31N 40°49' E 025°13'1 1.9
2017-Sep-17 03:58N 40°49' E 025°14'1 2.5
2017-Sep-17 03:30N 40°49' E 025°16'1 2.5
2017-Sep-17 03:00N 40°49' E 025°18'1 2.6
2017-Sep-17 02:31N 40°49' E 025°19'5 2.6
2017-Sep-17 00:45N 40°47' E 025°25'3 3.0
2017-Sep-16 23:45N 40°46' E 025°29'0 1.2
2017-Sep-16 23:30N 40°46' E 025°28'1 2.2
2017-Sep-16 23:00N 40°46' E 025°27'1 2.6
2017-Sep-16 22:30N 40°47' E 025°25'1 2.7
2017-Sep-16 22:00N 40°47' E 025°24'1 2.7
2017-Sep-16 21:30N 40°47' E 025°22'3 2.6
2017-Sep-16 20:23N 40°46' E 025°19'1 2.6
2017-Sep-16 20:00N 40°45' E 025°18'1 2.6
2017-Sep-16 19:30N 40°45' E 025°16'1 2.6
2017-Sep-16 19:01N 40°44' E 025°15'1 1.7
2017-Sep-16 18:30N 40°44' E 025°16'1 2.7
2017-Sep-16 18:00N 40°44' E 025°17'1 2.7
2017-Sep-16 17:29N 40°44' E 025°19'1 2.6
2017-Sep-16 16:57N 40°45' E 025°21'3 2.6
2017-Sep-16 15:55N 40°45' E 025°25'1 2.6
2017-Sep-16 15:28N 40°45' E 025°26'2 2.9
2017-Sep-16 14:46N 40°45' E 025°29'1 4.7
2017-Sep-16 14:30N 40°46' E 025°28'2 2.2
2017-Sep-16 13:49N 40°47' E 025°26'1 2.6
2017-Sep-16 13:26N 40°47' E 025°25'1 2.6
2017-Sep-16 13:01N 40°48' E 025°24'1 2.7
2017-Sep-16 12:30N 40°48' E 025°22'1 2.7
2017-Sep-16 12:00N 40°48' E 025°20'3 2.6
2017-Sep-16 10:56N 40°48' E 025°16'1 2.6
2017-Sep-16 10:26N 40°48' E 025°15'11 0.5
2017-Sep-15 10:16N 40°58' E 025°08'1 4.7
2017-Sep-15 10:00N 40°57' E 025°08'4 8.3
2017-Sep-15 09:30N 40°53' E 025°10'3 5.0
2017-Sep-15 08:57N 40°50' E 025°10'1 2.4
2017-Sep-15 08:30N 40°50' E 025°09'1 2.7
2017-Sep-15 07:58N 40°50' E 025°07'1 2.7
2017-Sep-15 07:29N 40°50' E 025°05'1 2.7
2017-Sep-15 07:00N 40°50' E 025°04'1 2.7
2017-Sep-15 06:28N 40°49' E 025°02'1 2.2
2017-Sep-15 06:01N 40°49' E 025°01'1 2.0
2017-Sep-15 05:30N 40°49' E 025°02'2 2.7
2017-Sep-15 04:55N 40°49' E 025°04'1 2.6
2017-Sep-15 04:30N 40°49' E 025°05'1 2.6
2017-Sep-15 04:00N 40°50' E 025°07'1 2.6
2017-Sep-15 03:31N 40°50' E 025°09'2 3.0
2017-Sep-15 03:00N 40°50' E 025°11'3 6.9
2017-Sep-15 02:31N 40°53' E 025°10'5 0.7
2017-Sep-14 19:21N 40°58' E 025°08'0 1.0
2017-Sep-14 19:00N 40°58' E 025°07'3 5.8
2017-Sep-14 18:31N 40°55' E 025°09'4 7.9
2017-Sep-14 18:01N 40°52' E 025°13'4 7.4
2017-Sep-14 17:30N 40°49' E 025°16'1 2.3
2017-Sep-14 17:01N 40°48' E 025°16'1 2.4
2017-Sep-14 16:30N 40°48' E 025°18'1 2.3
2017-Sep-14 16:01N 40°48' E 025°19'1 2.2
2017-Sep-14 15:31N 40°48' E 025°21'6 0.9
2017-Sep-14 08:30N 40°48' E 025°13'2 2.9
2017-Sep-14 07:55N 40°47' E 025°10'1 2.8
2017-Sep-14 07:29N 40°47' E 025°09'1 2.7
2017-Sep-14 07:00N 40°46' E 025°07'1 2.7
2017-Sep-14 06:30N 40°46' E 025°06'1 2.7
2017-Sep-14 06:00N 40°46' E 025°04'2 2.6
2017-Sep-14 05:21N 40°45' E 025°02'1 1.8
2017-Sep-14 05:00N 40°45' E 025°01'1 2.0
2017-Sep-14 04:30N 40°45' E 025°02'1 2.6
2017-Sep-14 04:00N 40°45' E 025°04'1 2.6
2017-Sep-14 03:30N 40°45' E 025°06'1 2.6
2017-Sep-14 03:01N 40°45' E 025°08'2 2.6
2017-Sep-14 02:10N 40°45' E 025°10'0 2.6
2017-Sep-14 01:59N 40°45' E 025°11'1 2.9
2017-Sep-14 01:30N 40°46' E 025°13'1 1.6
2017-Sep-14 00:45N 40°46' E 025°14'1 2.6
2017-Sep-14 00:27N 40°46' E 025°15'4 2.5
2017-Sep-13 22:55N 40°46' E 025°20'1 2.5
2017-Sep-13 22:31N 40°46' E 025°22'1 2.5
2017-Sep-13 22:00N 40°46' E 025°23'1 2.5
2017-Sep-13 21:31N 40°46' E 025°25'1 2.5
2017-Sep-13 21:00N 40°46' E 025°27'1 1.6
2017-Sep-13 20:31N 40°46' E 025°28'1 2.4
2017-Sep-13 20:01N 40°46' E 025°29'1 2.4
2017-Sep-13 19:30N 40°45' E 025°31'1 2.5
2017-Sep-13 19:01N 40°45' E 025°32'1 2.5
2017-Sep-13 18:30N 40°45' E 025°34'1 2.6
2017-Sep-13 18:00N 40°45' E 025°36'1 2.7
2017-Sep-13 17:27N 40°45' E 025°37'1 3.2
2017-Sep-13 17:00N 40°45' E 025°39'4 7.5
2017-Sep-13 16:31N 40°44' E 025°44'0 0.6
2017-Sep-13 16:01N 40°44' E 025°45'1 2.7
2017-Sep-13 15:30N 40°44' E 025°43'1 2.7
2017-Sep-13 15:00N 40°44' E 025°41'1 2.5
2017-Sep-13 14:31N 40°44' E 025°39'1 2.6
2017-Sep-13 14:01N 40°45' E 025°38'1 2.7
2017-Sep-13 13:30N 40°45' E 025°36'1 2.7
2017-Sep-13 13:01N 40°45' E 025°34'1 2.7
2017-Sep-13 12:30N 40°45' E 025°32'10 2.9
2017-Sep-13 08:52N 40°49' E 025°20'1 3.0
2017-Sep-13 08:27N 40°49' E 025°18'2 3.0
2017-Sep-13 07:50N 40°49' E 025°16'3 3.9
2017-Sep-13 06:57N 40°50' E 025°11'1 2.0
2017-Sep-13 06:31N 40°50' E 025°10'2 2.7
2017-Sep-13 05:57N 40°50' E 025°08'2 2.8
2017-Sep-13 05:18N 40°50' E 025°06'1 2.8
2017-Sep-13 04:48N 40°50' E 025°04'1 2.9
2017-Sep-13 04:30N 40°50' E 025°03'1 2.8
2017-Sep-13 04:00N 40°50' E 025°01'2 4.2
2017-Sep-13 03:30N 40°52' E 025°02'4 7.9
2017-Sep-13 03:00N 40°55' E 025°05'  
2017-Sep-10 17:31N 40°58' E 025°08'0 0.0
2017-Sep-10 17:30N 40°58' E 025°08'0 0.7
2017-Sep-10 17:01N 40°58' E 025°07'3 6.7
2017-Sep-10 16:30N 40°55' E 025°10'4 7.5
2017-Sep-10 16:00N 40°52' E 025°12'3 5.8
2017-Sep-10 15:31N 40°49' E 025°14'1 1.8
2017-Sep-10 15:00N 40°49' E 025°15'2 2.5
2017-Sep-10 14:00N 40°49' E 025°18'7 2.5
2017-Sep-10 11:08N 40°46' E 025°27'4 2.1
2017-Sep-10 09:17N 40°45' E 025°22'5 2.9
2017-Sep-10 07:35N 40°47' E 025°16'0 3.0
2017-Sep-10 07:29N 40°47' E 025°16'1 2.2
2017-Sep-10 06:51N 40°48' E 025°15'1 1.4
2017-Sep-10 06:20N 40°48' E 025°16'1 2.5
2017-Sep-10 05:58N 40°48' E 025°17'3 2.4
2017-Sep-10 04:32N 40°48' E 025°21'4 1.0
2017-Sep-10 01:00N 40°45' E 025°21'1 2.8
2017-Sep-10 00:30N 40°45' E 025°20'2 2.8
2017-Sep-09 23:43N 40°44' E 025°17'1 2.8
2017-Sep-09 23:12N 40°45' E 025°15'1 2.8
2017-Sep-09 23:00N 40°45' E 025°14'1 2.7
2017-Sep-09 22:30N 40°45' E 025°12'2 2.7
2017-Sep-09 21:53N 40°45' E 025°10'0 0.3
2017-Sep-09 21:24N 40°45' E 025°10'1 1.5
2017-Sep-09 21:00N 40°45' E 025°11'8 2.4
2017-Sep-09 17:53N 40°46' E 025°21'1 2.5
2017-Sep-09 17:21N 40°46' E 025°22'4 1.9
2017-Sep-09 15:00N 40°45' E 025°17'2 2.9
2017-Sep-09 14:26N 40°45' E 025°15'3 2.8
2017-Sep-09 13:33N 40°45' E 025°11'0 2.9
2017-Sep-09 13:30N 40°45' E 025°11'2 2.8
2017-Sep-09 12:55N 40°45' E 025°09'1 3.2
2017-Sep-09 12:27N 40°45' E 025°07'1 1.8
2017-Sep-09 11:40N 40°45' E 025°09'2 2.6
2017-Sep-09 10:54N 40°45' E 025°11'1 2.5
2017-Sep-09 10:28N 40°45' E 025°13'1 2.6
2017-Sep-09 09:59N 40°45' E 025°15'1 2.6
2017-Sep-09 09:30N 40°45' E 025°16'2 2.6
2017-Sep-09 08:52N 40°45' E 025°18'1 2.6
2017-Sep-09 08:28N 40°46' E 025°20'1 2.2
2017-Sep-09 08:01N 40°46' E 025°21'1 1.9
2017-Sep-09 07:30N 40°46' E 025°20'1 2.8
2017-Sep-09 07:00N 40°46' E 025°18'3 2.8
2017-Sep-09 05:58N 40°45' E 025°14'2 2.9
2017-Sep-09 05:25N 40°45' E 025°12'1 2.9
2017-Sep-09 05:00N 40°45' E 025°10'1 2.9
2017-Sep-09 04:30N 40°45' E 025°08'1 2.8
2017-Sep-09 04:00N 40°45' E 025°07'2 3.6
2017-Sep-09 03:26N 40°47' E 025°05'3 7.6
2017-Sep-09 03:00N 40°50' E 025°05'8 0.9
2017-Sep-08 18:25N 40°58' E 025°08'3 7.0
2017-Sep-08 18:00N 40°55' E 025°08'4 7.9
2017-Sep-08 17:30N 40°51' E 025°08'1 2.7
2017-Sep-08 17:00N 40°50' E 025°07'1 2.7
2017-Sep-08 16:30N 40°50' E 025°06'1 2.6
2017-Sep-08 16:00N 40°50' E 025°04'1 2.7
2017-Sep-08 15:29N 40°50' E 025°02'1 3.0
2017-Sep-08 15:00N 40°49' E 025°01'1 1.8
2017-Sep-08 14:28N 40°48' E 025°02'2 2.7
2017-Sep-08 13:53N 40°48' E 025°04'1 2.7
2017-Sep-08 13:30N 40°48' E 025°05'1 2.6
2017-Sep-08 12:59N 40°48' E 025°07'1 2.6
2017-Sep-08 12:29N 40°48' E 025°09'3 2.6
2017-Sep-08 11:20N 40°48' E 025°12'1 2.6
2017-Sep-08 11:00N 40°48' E 025°14'1 2.8
2017-Sep-08 10:31N 40°48' E 025°15'0 0.8
2017-Sep-08 10:00N 40°48' E 025°16'1 2.3
2017-Sep-08 09:31N 40°47' E 025°17'1 2.8
2017-Sep-08 09:01N 40°46' E 025°18'1 2.7
2017-Sep-08 08:31N 40°45' E 025°20'1 2.5
2017-Sep-08 08:01N 40°44' E 025°21'2 2.7
2017-Sep-08 07:13N 40°43' E 025°22'1 2.6
2017-Sep-08 07:00N 40°42' E 025°23'5 2.7
2017-Sep-08 05:04N 40°37' E 025°25'1 5.7
2017-Sep-08 04:48N 40°36' E 025°27'1 1.9
2017-Sep-08 04:13N 40°37' E 025°26'1 2.9
2017-Sep-08 03:45N 40°38' E 025°25'1 2.9
2017-Sep-08 03:30N 40°39' E 025°24'1 2.9
2017-Sep-08 03:00N 40°40' E 025°23'1 2.9
2017-Sep-08 02:31N 40°41' E 025°22'1 2.9
2017-Sep-08 02:01N 40°42' E 025°20'1 2.9
2017-Sep-08 01:30N 40°43' E 025°19'1 2.8
2017-Sep-08 01:01N 40°43' E 025°17'2 1.3
2017-Sep-07 23:29N 40°44' E 025°15'1 2.8
2017-Sep-07 23:00N 40°45' E 025°17'3 2.8
2017-Sep-07 21:50N 40°46' E 025°21'1 2.8
2017-Sep-07 21:31N 40°46' E 025°22'12 2.6
2017-Sep-07 16:48N 40°44' E 025°38'1 2.7
2017-Sep-07 16:28N 40°44' E 025°39'1 2.7
2017-Sep-07 15:57N 40°43' E 025°41'1 2.7
2017-Sep-07 15:27N 40°43' E 025°42'3 5.4
2017-Sep-07 14:57N 40°42' E 025°46'0 0.9
2017-Sep-07 14:31N 40°42' E 025°45'  
Track history (hours):
 
Tides and Currents Weather Stations Pressure Air Temp Water Temp Dewpoint Dewpoint Depression Visibility Wind Speed Wind Dir Waves Ship Positions

Agia Eleousa

Last reported at 2017-Sep-17 14:29 UTC. Time now 2017-Sep-20 23:36 UTC.
Position N 40°58' E 025°08'.

Length 19 m.

Type: Fishing. MMSI: 237063000.

Date/timePositionNaut miles runAvg speedWind from/ knotsBaromVisibWave heightAir tempDewpointWater temp
2017-Sep-17 14:29N 40°58' E 025°08'2 3.3
2017-Sep-17 14:01N 40°56' E 025°09'4 7.9
2017-Sep-17 13:31N 40°53' E 025°12'4 8.0
2017-Sep-17 13:01N 40°50' E 025°15'2 4.4
2017-Sep-17 12:30N 40°48' E 025°16'1 2.6
2017-Sep-17 12:01N 40°48' E 025°14'1 2.8
2017-Sep-17 11:31N 40°48' E 025°12'1 2.8
2017-Sep-17 11:01N 40°48' E 025°10'1 2.8
2017-Sep-17 10:30N 40°48' E 025°08'1 2.7
2017-Sep-17 10:01N 40°48' E 025°07'1 2.7
2017-Sep-17 09:31N 40°48' E 025°05'1 2.7
2017-Sep-17 08:59N 40°48' E 025°03'1 2.7
2017-Sep-17 08:30N 40°49' E 025°01'0 0.8
2017-Sep-17 08:00N 40°49' E 025°01'2 2.7
2017-Sep-17 07:23N 40°49' E 025°03'1 2.7
2017-Sep-17 06:56N 40°49' E 025°05'1 2.7
2017-Sep-17 06:29N 40°49' E 025°06'1 2.7
2017-Sep-17 06:00N 40°50' E 025°08'3 2.7
2017-Sep-17 04:58N 40°50' E 025°12'1 2.7
2017-Sep-17 04:31N 40°49' E 025°13'1 1.9
2017-Sep-17 03:58N 40°49' E 025°14'1 2.5
2017-Sep-17 03:30N 40°49' E 025°16'1 2.5
2017-Sep-17 03:00N 40°49' E 025°18'1 2.6
2017-Sep-17 02:31N 40°49' E 025°19'5 2.6
2017-Sep-17 00:45N 40°47' E 025°25'3 3.0
2017-Sep-16 23:45N 40°46' E 025°29'0 1.2
2017-Sep-16 23:30N 40°46' E 025°28'1 2.2
2017-Sep-16 23:00N 40°46' E 025°27'1 2.6
2017-Sep-16 22:30N 40°47' E 025°25'1 2.7
2017-Sep-16 22:00N 40°47' E 025°24'1 2.7
2017-Sep-16 21:30N 40°47' E 025°22'3 2.6
2017-Sep-16 20:23N 40°46' E 025°19'1 2.6
2017-Sep-16 20:00N 40°45' E 025°18'1 2.6
2017-Sep-16 19:30N 40°45' E 025°16'1 2.6
2017-Sep-16 19:01N 40°44' E 025°15'1 1.7
2017-Sep-16 18:30N 40°44' E 025°16'1 2.7
2017-Sep-16 18:00N 40°44' E 025°17'1 2.7
2017-Sep-16 17:29N 40°44' E 025°19'1 2.6
2017-Sep-16 16:57N 40°45' E 025°21'3 2.6
2017-Sep-16 15:55N 40°45' E 025°25'1 2.6
2017-Sep-16 15:28N 40°45' E 025°26'2 2.9
2017-Sep-16 14:46N 40°45' E 025°29'1 4.7
2017-Sep-16 14:30N 40°46' E 025°28'2 2.2
2017-Sep-16 13:49N 40°47' E 025°26'1 2.6
2017-Sep-16 13:26N 40°47' E 025°25'1 2.6
2017-Sep-16 13:01N 40°48' E 025°24'1 2.7
2017-Sep-16 12:30N 40°48' E 025°22'1 2.7
2017-Sep-16 12:00N 40°48' E 025°20'3 2.6
2017-Sep-16 10:56N 40°48' E 025°16'1 2.6
2017-Sep-16 10:26N 40°48' E 025°15'11 0.5
2017-Sep-15 10:16N 40°58' E 025°08'1 4.7
2017-Sep-15 10:00N 40°57' E 025°08'4 8.3
2017-Sep-15 09:30N 40°53' E 025°10'3 5.0
2017-Sep-15 08:57N 40°50' E 025°10'1 2.4
2017-Sep-15 08:30N 40°50' E 025°09'1 2.7
2017-Sep-15 07:58N 40°50' E 025°07'1 2.7
2017-Sep-15 07:29N 40°50' E 025°05'1 2.7
2017-Sep-15 07:00N 40°50' E 025°04'1 2.7
2017-Sep-15 06:28N 40°49' E 025°02'1 2.2
2017-Sep-15 06:01N 40°49' E 025°01'1 2.0
2017-Sep-15 05:30N 40°49' E 025°02'2 2.7
2017-Sep-15 04:55N 40°49' E 025°04'1 2.6
2017-Sep-15 04:30N 40°49' E 025°05'1 2.6
2017-Sep-15 04:00N 40°50' E 025°07'1 2.6
2017-Sep-15 03:31N 40°50' E 025°09'2 3.0
2017-Sep-15 03:00N 40°50' E 025°11'3 6.9
2017-Sep-15 02:31N 40°53' E 025°10'5 0.7
2017-Sep-14 19:21N 40°58' E 025°08'0 1.0
2017-Sep-14 19:00N 40°58' E 025°07'3 5.8
2017-Sep-14 18:31N 40°55' E 025°09'4 7.9
2017-Sep-14 18:01N 40°52' E 025°13'4 7.4
2017-Sep-14 17:30N 40°49' E 025°16'1 2.3
2017-Sep-14 17:01N 40°48' E 025°16'1 2.4
2017-Sep-14 16:30N 40°48' E 025°18'1 2.3
2017-Sep-14 16:01N 40°48' E 025°19'1 2.2
2017-Sep-14 15:31N 40°48' E 025°21'6 0.9
2017-Sep-14 08:30N 40°48' E 025°13'2 2.9
2017-Sep-14 07:55N 40°47' E 025°10'1 2.8
2017-Sep-14 07:29N 40°47' E 025°09'1 2.7
2017-Sep-14 07:00N 40°46' E 025°07'1 2.7
2017-Sep-14 06:30N 40°46' E 025°06'1 2.7
2017-Sep-14 06:00N 40°46' E 025°04'2 2.6
2017-Sep-14 05:21N 40°45' E 025°02'1 1.8
2017-Sep-14 05:00N 40°45' E 025°01'1 2.0
2017-Sep-14 04:30N 40°45' E 025°02'1 2.6
2017-Sep-14 04:00N 40°45' E 025°04'1 2.6
2017-Sep-14 03:30N 40°45' E 025°06'1 2.6
2017-Sep-14 03:01N 40°45' E 025°08'2 2.6
2017-Sep-14 02:10N 40°45' E 025°10'0 2.6
2017-Sep-14 01:59N 40°45' E 025°11'1 2.9
2017-Sep-14 01:30N 40°46' E 025°13'1 1.6
2017-Sep-14 00:45N 40°46' E 025°14'1 2.6
2017-Sep-14 00:27N 40°46' E 025°15'4 2.5
2017-Sep-13 22:55N 40°46' E 025°20'1 2.5
2017-Sep-13 22:31N 40°46' E 025°22'1 2.5
2017-Sep-13 22:00N 40°46' E 025°23'1 2.5
2017-Sep-13 21:31N 40°46' E 025°25'1 2.5
2017-Sep-13 21:00N 40°46' E 025°27'1 1.6
2017-Sep-13 20:31N 40°46' E 025°28'1 2.4
2017-Sep-13 20:01N 40°46' E 025°29'1 2.4
2017-Sep-13 19:30N 40°45' E 025°31'1 2.5
2017-Sep-13 19:01N 40°45' E 025°32'1 2.5
2017-Sep-13 18:30N 40°45' E 025°34'1 2.6
2017-Sep-13 18:00N 40°45' E 025°36'1 2.7
2017-Sep-13 17:27N 40°45' E 025°37'1 3.2
2017-Sep-13 17:00N 40°45' E 025°39'4 7.5
2017-Sep-13 16:31N 40°44' E 025°44'0 0.6
2017-Sep-13 16:01N 40°44' E 025°45'1 2.7
2017-Sep-13 15:30N 40°44' E 025°43'1 2.7
2017-Sep-13 15:00N 40°44' E 025°41'1 2.5
2017-Sep-13 14:31N 40°44' E 025°39'1 2.6
2017-Sep-13 14:01N 40°45' E 025°38'1 2.7
2017-Sep-13 13:30N 40°45' E 025°36'1 2.7
2017-Sep-13 13:01N 40°45' E 025°34'1 2.7
2017-Sep-13 12:30N 40°45' E 025°32'10 2.9
2017-Sep-13 08:52N 40°49' E 025°20'1 3.0
2017-Sep-13 08:27N 40°49' E 025°18'2 3.0
2017-Sep-13 07:50N 40°49' E 025°16'3 3.9
2017-Sep-13 06:57N 40°50' E 025°11'1 2.0
2017-Sep-13 06:31N 40°50' E 025°10'2 2.7
2017-Sep-13 05:57N 40°50' E 025°08'2 2.8
2017-Sep-13 05:18N 40°50' E 025°06'1 2.8
2017-Sep-13 04:48N 40°50' E 025°04'1 2.9
2017-Sep-13 04:30N 40°50' E 025°03'1 2.8
2017-Sep-13 04:00N 40°50' E 025°01'2 4.2
2017-Sep-13 03:30N 40°52' E 025°02'4 7.9
2017-Sep-13 03:00N 40°55' E 025°05'  
2017-Sep-10 17:31N 40°58' E 025°08'0 0.0
2017-Sep-10 17:30N 40°58' E 025°08'0 0.7
2017-Sep-10 17:01N 40°58' E 025°07'3 6.7
2017-Sep-10 16:30N 40°55' E 025°10'4 7.5
2017-Sep-10 16:00N 40°52' E 025°12'3 5.8
2017-Sep-10 15:31N 40°49' E 025°14'1 1.8
2017-Sep-10 15:00N 40°49' E 025°15'2 2.5
2017-Sep-10 14:00N 40°49' E 025°18'7 2.5
2017-Sep-10 11:08N 40°46' E 025°27'4 2.1
2017-Sep-10 09:17N 40°45' E 025°22'5 2.9
2017-Sep-10 07:35N 40°47' E 025°16'0 3.0
2017-Sep-10 07:29N 40°47' E 025°16'1 2.2
2017-Sep-10 06:51N 40°48' E 025°15'1 1.4
2017-Sep-10 06:20N 40°48' E 025°16'1 2.5
2017-Sep-10 05:58N 40°48' E 025°17'3 2.4
2017-Sep-10 04:32N 40°48' E 025°21'4 1.0
2017-Sep-10 01:00N 40°45' E 025°21'1 2.8
2017-Sep-10 00:30N 40°45' E 025°20'2 2.8
2017-Sep-09 23:43N 40°44' E 025°17'1 2.8
2017-Sep-09 23:12N 40°45' E 025°15'1 2.8
2017-Sep-09 23:00N 40°45' E 025°14'1 2.7
2017-Sep-09 22:30N 40°45' E 025°12'2 2.7
2017-Sep-09 21:53N 40°45' E 025°10'0 0.3
2017-Sep-09 21:24N 40°45' E 025°10'1 1.5
2017-Sep-09 21:00N 40°45' E 025°11'8 2.4
2017-Sep-09 17:53N 40°46' E 025°21'1 2.5
2017-Sep-09 17:21N 40°46' E 025°22'4 1.9
2017-Sep-09 15:00N 40°45' E 025°17'2 2.9
2017-Sep-09 14:26N 40°45' E 025°15'3 2.8
2017-Sep-09 13:33N 40°45' E 025°11'0 2.9
2017-Sep-09 13:30N 40°45' E 025°11'2 2.8
2017-Sep-09 12:55N 40°45' E 025°09'1 3.2
2017-Sep-09 12:27N 40°45' E 025°07'1 1.8
2017-Sep-09 11:40N 40°45' E 025°09'2 2.6
2017-Sep-09 10:54N 40°45' E 025°11'1 2.5
2017-Sep-09 10:28N 40°45' E 025°13'1 2.6
2017-Sep-09 09:59N 40°45' E 025°15'1 2.6
2017-Sep-09 09:30N 40°45' E 025°16'2 2.6
2017-Sep-09 08:52N 40°45' E 025°18'1 2.6
2017-Sep-09 08:28N 40°46' E 025°20'1 2.2
2017-Sep-09 08:01N 40°46' E 025°21'1 1.9
2017-Sep-09 07:30N 40°46' E 025°20'1 2.8
2017-Sep-09 07:00N 40°46' E 025°18'3 2.8
2017-Sep-09 05:58N 40°45' E 025°14'2 2.9
2017-Sep-09 05:25N 40°45' E 025°12'1 2.9
2017-Sep-09 05:00N 40°45' E 025°10'1 2.9
2017-Sep-09 04:30N 40°45' E 025°08'1 2.8
2017-Sep-09 04:00N 40°45' E 025°07'2 3.6
2017-Sep-09 03:26N 40°47' E 025°05'3 7.6
2017-Sep-09 03:00N 40°50' E 025°05'8 0.9
2017-Sep-08 18:25N 40°58' E 025°08'3 7.0
2017-Sep-08 18:00N 40°55' E 025°08'4 7.9
2017-Sep-08 17:30N 40°51' E 025°08'1 2.7
2017-Sep-08 17:00N 40°50' E 025°07'1 2.7
2017-Sep-08 16:30N 40°50' E 025°06'1 2.6
2017-Sep-08 16:00N 40°50' E 025°04'1 2.7
2017-Sep-08 15:29N 40°50' E 025°02'1 3.0
2017-Sep-08 15:00N 40°49' E 025°01'1 1.8
2017-Sep-08 14:28N 40°48' E 025°02'2 2.7
2017-Sep-08 13:53N 40°48' E 025°04'1 2.7
2017-Sep-08 13:30N 40°48' E 025°05'1 2.6
2017-Sep-08 12:59N 40°48' E 025°07'1 2.6
2017-Sep-08 12:29N 40°48' E 025°09'3 2.6
2017-Sep-08 11:20N 40°48' E 025°12'1 2.6
2017-Sep-08 11:00N 40°48' E 025°14'1 2.8
2017-Sep-08 10:31N 40°48' E 025°15'0 0.8
2017-Sep-08 10:00N 40°48' E 025°16'1 2.3
2017-Sep-08 09:31N 40°47' E 025°17'1 2.8
2017-Sep-08 09:01N 40°46' E 025°18'1 2.7
2017-Sep-08 08:31N 40°45' E 025°20'1 2.5
2017-Sep-08 08:01N 40°44' E 025°21'2 2.7
2017-Sep-08 07:13N 40°43' E 025°22'1 2.6
2017-Sep-08 07:00N 40°42' E 025°23'5 2.7
2017-Sep-08 05:04N 40°37' E 025°25'1 5.7
2017-Sep-08 04:48N 40°36' E 025°27'1 1.9
2017-Sep-08 04:13N 40°37' E 025°26'1 2.9
2017-Sep-08 03:45N 40°38' E 025°25'1 2.9
2017-Sep-08 03:30N 40°39' E 025°24'1 2.9
2017-Sep-08 03:00N 40°40' E 025°23'1 2.9
2017-Sep-08 02:31N 40°41' E 025°22'1 2.9
2017-Sep-08 02:01N 40°42' E 025°20'1 2.9
2017-Sep-08 01:30N 40°43' E 025°19'1 2.8
2017-Sep-08 01:01N 40°43' E 025°17'2 1.3
2017-Sep-07 23:29N 40°44' E 025°15'1 2.8
2017-Sep-07 23:00N 40°45' E 025°17'3 2.8
2017-Sep-07 21:50N 40°46' E 025°21'1 2.8
2017-Sep-07 21:31N 40°46' E 025°22'12 2.6
2017-Sep-07 16:48N 40°44' E 025°38'1 2.7
2017-Sep-07 16:28N 40°44' E 025°39'1 2.7
2017-Sep-07 15:57N 40°43' E 025°41'1 2.7
2017-Sep-07 15:27N 40°43' E 025°42'3 5.4
2017-Sep-07 14:57N 40°42' E 025°46'0 0.9
2017-Sep-07 14:31N 40°42' E 025°45'  

Dump ship's entire track history